sensor_id;sensor_type;location;lat;lon;timestamp;pressure;altitude;pressure_sealevel;temperature;humidity
16355;BME280;8287;51.644;8.494;2023-02-13T00:00:42;102569.97;;;9.79;84.89
16355;BME280;8287;51.644;8.494;2023-02-13T00:03:10;102572.13;;;9.82;85.55
16355;BME280;8287;51.644;8.494;2023-02-13T00:05:36;102576.28;;;9.94;85.27
16355;BME280;8287;51.644;8.494;2023-02-13T00:08:04;102566.50;;;9.95;84.65
16355;BME280;8287;51.644;8.494;2023-02-13T00:10:30;102569.69;;;9.97;84.94
16355;BME280;8287;51.644;8.494;2023-02-13T00:12:57;102565.09;;;10.09;84.68
16355;BME280;8287;51.644;8.494;2023-02-13T00:15:23;102569.19;;;10.00;84.37
16355;BME280;8287;51.644;8.494;2023-02-13T00:17:50;102562.75;;;10.12;84.80
16355;BME280;8287;51.644;8.494;2023-02-13T00:20:18;102563.44;;;10.03;84.80
16355;BME280;8287;51.644;8.494;2023-02-13T00:22:45;102568.50;;;9.88;84.31
16355;BME280;8287;51.644;8.494;2023-02-13T00:25:11;102562.09;;;9.84;85.03
16355;BME280;8287;51.644;8.494;2023-02-13T00:27:38;102567.03;;;9.97;84.58
16355;BME280;8287;51.644;8.494;2023-02-13T00:30:06;102565.22;;;9.81;85.27
16355;BME280;8287;51.644;8.494;2023-02-13T00:32:33;102566.38;;;9.85;85.33
16355;BME280;8287;51.644;8.494;2023-02-13T00:34:59;102560.44;;;9.78;85.31
16355;BME280;8287;51.644;8.494;2023-02-13T00:37:27;102555.19;;;9.83;85.91
16355;BME280;8287;51.644;8.494;2023-02-13T00:39:54;102553.47;;;9.72;85.80
16355;BME280;8287;51.644;8.494;2023-02-13T00:42:22;102542.88;;;9.72;85.24
16355;BME280;8287;51.644;8.494;2023-02-13T00:44:50;102556.59;;;9.69;86.36
16355;BME280;8287;51.644;8.494;2023-02-13T00:47:17;102542.88;;;9.72;85.88
16355;BME280;8287;51.644;8.494;2023-02-13T00:49:44;102546.25;;;9.68;86.01
16355;BME280;8287;51.644;8.494;2023-02-13T00:52:11;102551.31;;;9.69;86.27
16355;BME280;8287;51.644;8.494;2023-02-13T00:54:39;102547.31;;;9.67;86.06
16355;BME280;8287;51.644;8.494;2023-02-13T00:57:05;102557.06;;;9.66;85.66
16355;BME280;8287;51.644;8.494;2023-02-13T00:59:32;102566.69;;;9.72;85.84
16355;BME280;8287;51.644;8.494;2023-02-13T01:01:59;102563.00;;;9.73;85.77
16355;BME280;8287;51.644;8.494;2023-02-13T01:04:25;102566.19;;;9.75;86.25
16355;BME280;8287;51.644;8.494;2023-02-13T01:06:52;102569.25;;;9.67;86.43
16355;BME280;8287;51.644;8.494;2023-02-13T01:09:18;102557.88;;;9.67;86.78
16355;BME280;8287;51.644;8.494;2023-02-13T01:11:46;102557.34;;;9.65;87.05
16355;BME280;8287;51.644;8.494;2023-02-13T01:14:13;102551.78;;;9.66;86.72
16355;BME280;8287;51.644;8.494;2023-02-13T01:16:39;102556.28;;;9.66;87.25
16355;BME280;8287;51.644;8.494;2023-02-13T01:19:06;102551.78;;;9.66;86.80
16355;BME280;8287;51.644;8.494;2023-02-13T01:21:32;102556.59;;;9.69;86.66
16355;BME280;8287;51.644;8.494;2023-02-13T01:24:02;102552.78;;;9.60;87.05
16355;BME280;8287;51.644;8.494;2023-02-13T01:26:29;102547.31;;;9.50;87.40
16355;BME280;8287;51.644;8.494;2023-02-13T01:28:56;102553.00;;;9.42;87.73
16355;BME280;8287;51.644;8.494;2023-02-13T01:31:23;102547.50;;;9.44;88.32
16355;BME280;8287;51.644;8.494;2023-02-13T01:33:50;102554.47;;;9.50;88.07
16355;BME280;8287;51.644;8.494;2023-02-13T01:36:17;102549.09;;;9.61;88.01
16355;BME280;8287;51.644;8.494;2023-02-13T01:38:44;102543.94;;;9.55;87.58
16355;BME280;8287;51.644;8.494;2023-02-13T01:41:10;102541.78;;;9.52;88.00
16355;BME280;8287;51.644;8.494;2023-02-13T01:43:47;102539.97;;;9.52;87.75
16355;BME280;8287;51.644;8.494;2023-02-13T01:46:20;102533.84;;;9.52;87.64
16355;BME280;8287;51.644;8.494;2023-02-13T01:48:48;102537.22;;;9.47;88.17
16355;BME280;8287;51.644;8.494;2023-02-13T01:51:18;102531.34;;;9.62;88.06
16355;BME280;8287;51.644;8.494;2023-02-13T01:53:47;102527.59;;;9.58;87.82
16355;BME280;8287;51.644;8.494;2023-02-13T01:56:19;102525.59;;;9.48;87.64
16355;BME280;8287;51.644;8.494;2023-02-13T01:58:48;102523.59;;;9.55;87.95
16355;BME280;8287;51.644;8.494;2023-02-13T02:01:18;102523.09;;;9.58;87.47
16355;BME280;8287;51.644;8.494;2023-02-13T02:03:47;102514.09;;;9.59;87.19
16355;BME280;8287;51.644;8.494;2023-02-13T02:06:18;102520.69;;;9.57;87.77
16355;BME280;8287;51.644;8.494;2023-02-13T02:08:49;102517.75;;;9.53;87.12
16355;BME280;8287;51.644;8.494;2023-02-13T02:11:23;102523.09;;;9.58;88.01
16355;BME280;8287;51.644;8.494;2023-02-13T02:13:53;102525.19;;;9.56;87.45
16355;BME280;8287;51.644;8.494;2023-02-13T02:16:21;102526.78;;;9.57;87.40
16355;BME280;8287;51.644;8.494;2023-02-13T02:18:48;102521.44;;;9.52;87.43
16355;BME280;8287;51.644;8.494;2023-02-13T02:21:41;102519.19;;;9.44;87.70
16355;BME280;8287;51.644;8.494;2023-02-13T02:25:03;102517.47;;;9.55;88.49
16355;BME280;8287;51.644;8.494;2023-02-13T02:27:49;102512.03;;;9.45;88.56
16355;BME280;8287;51.644;8.494;2023-02-13T02:30:48;102516.06;;;9.47;88.10
16355;BME280;8287;51.644;8.494;2023-02-13T02:33:33;102506.41;;;9.58;87.68
16355;BME280;8287;51.644;8.494;2023-02-13T02:36:19;102508.81;;;9.59;88.16
16355;BME280;8287;51.644;8.494;2023-02-13T02:39:01;102498.09;;;9.70;87.43
16355;BME280;8287;51.644;8.494;2023-02-13T02:41:40;102502.75;;;9.80;86.91
16355;BME280;8287;51.644;8.494;2023-02-13T02:44:20;102500.34;;;9.78;86.59
16355;BME280;8287;51.644;8.494;2023-02-13T02:46:59;102489.69;;;9.73;86.81
16355;BME280;8287;51.644;8.494;2023-02-13T02:49:56;102495.00;;;9.73;86.40
16355;BME280;8287;51.644;8.494;2023-02-13T02:52:32;102487.41;;;9.82;86.64
16355;BME280;8287;51.644;8.494;2023-02-13T02:55:09;102485.31;;;9.84;86.82
16355;BME280;8287;51.644;8.494;2023-02-13T02:57:45;102477.44;;;9.89;86.25
16355;BME280;8287;51.644;8.494;2023-02-13T03:00:34;102479.66;;;9.97;85.64
16355;BME280;8287;51.644;8.494;2023-02-13T03:03:22;102483.81;;;9.93;85.23
16355;BME280;8287;51.644;8.494;2023-02-13T03:06:14;102482.81;;;9.94;85.54
16355;BME280;8287;51.644;8.494;2023-02-13T03:08:44;102478.84;;;9.96;85.45
16355;BME280;8287;51.644;8.494;2023-02-13T03:11:29;102477.88;;;10.02;84.89
16355;BME280;8287;51.644;8.494;2023-02-13T03:14:17;102481.75;;;9.95;84.67
16355;BME280;8287;51.644;8.494;2023-02-13T03:16:45;102482.72;;;9.89;85.12
16355;BME280;8287;51.644;8.494;2023-02-13T03:19:37;102484.84;;;9.87;85.48
16355;BME280;8287;51.644;8.494;2023-02-13T03:22:33;102480.09;;;9.89;85.95
16355;BME280;8287;51.644;8.494;2023-02-13T03:25:09;102480.09;;;9.89;85.36
16355;BME280;8287;51.644;8.494;2023-02-13T03:27:42;102478.53;;;9.93;85.25
16355;BME280;8287;51.644;8.494;2023-02-13T03:30:39;102464.75;;;9.91;85.23
16355;BME280;8287;51.644;8.494;2023-02-13T03:33:19;102467.16;;;9.92;84.68
16355;BME280;8287;51.644;8.494;2023-02-13T03:35:52;102469.00;;;9.92;84.67
16355;BME280;8287;51.644;8.494;2023-02-13T03:38:46;102474.34;;;9.97;83.99
16355;BME280;8287;51.644;8.494;2023-02-13T03:41:20;102474.03;;;9.93;84.03
16355;BME280;8287;51.644;8.494;2023-02-13T03:43:55;102481.78;;;10.00;83.44
16355;BME280;8287;51.644;8.494;2023-02-13T03:46:26;102483.59;;;9.94;83.75
16355;BME280;8287;51.644;8.494;2023-02-13T03:48:56;102479.16;;;10.00;82.78
16355;BME280;8287;51.644;8.494;2023-02-13T03:51:46;102484.44;;;10.00;82.42
16355;BME280;8287;51.644;8.494;2023-02-13T03:54:20;102483.34;;;9.96;82.59
16355;BME280;8287;51.644;8.494;2023-02-13T03:57:02;102481.34;;;10.03;82.59
16355;BME280;8287;51.644;8.494;2023-02-13T03:59:46;102479.25;;;10.05;82.31
16355;BME280;8287;51.644;8.494;2023-02-13T04:02:16;102481.09;;;10.04;82.34
16355;BME280;8287;51.644;8.494;2023-02-13T04:04:51;102486.84;;;10.01;82.24
16355;BME280;8287;51.644;8.494;2023-02-13T04:07:20;102490.25;;;9.97;82.31
16355;BME280;8287;51.644;8.494;2023-02-13T04:09:57;102485.25;;;10.00;82.10
16355;BME280;8287;51.644;8.494;2023-02-13T04:12:33;102488.69;;;10.01;82.28
16355;BME280;8287;51.644;8.494;2023-02-13T04:15:05;102492.16;;;10.01;82.41
16355;BME280;8287;51.644;8.494;2023-02-13T04:17:38;102501.50;;;10.04;82.35
16355;BME280;8287;51.644;8.494;2023-02-13T04:20:06;102491.09;;;9.81;82.46
16355;BME280;8287;51.644;8.494;2023-02-13T04:22:34;102496.53;;;9.91;83.13
16355;BME280;8287;51.644;8.494;2023-02-13T04:25:02;102501.81;;;9.91;83.21
16355;BME280;8287;51.644;8.494;2023-02-13T04:27:28;102501.34;;;9.94;82.79
16355;BME280;8287;51.644;8.494;2023-02-13T04:29:55;102505.63;;;10.00;82.48
16355;BME280;8287;51.644;8.494;2023-02-13T04:32:21;102496.59;;;9.96;82.40
16355;BME280;8287;51.644;8.494;2023-02-13T04:34:48;102501.81;;;9.91;81.83
16355;BME280;8287;51.644;8.494;2023-02-13T04:37:15;102503.78;;;9.79;82.15
16355;BME280;8287;51.644;8.494;2023-02-13T04:39:41;102497.66;;;9.95;82.11
16355;BME280;8287;51.644;8.494;2023-02-13T04:42:09;102494.19;;;9.94;82.18
16355;BME280;8287;51.644;8.494;2023-02-13T04:44:36;102499.72;;;9.93;81.94
16355;BME280;8287;51.644;8.494;2023-02-13T04:47:03;102501.81;;;9.91;81.94
16355;BME280;8287;51.644;8.494;2023-02-13T04:49:29;102501.81;;;9.91;82.03
16355;BME280;8287;51.644;8.494;2023-02-13T04:51:56;102495.72;;;9.90;82.41
16355;BME280;8287;51.644;8.494;2023-02-13T04:54:22;102492.28;;;9.90;82.18
16355;BME280;8287;51.644;8.494;2023-02-13T04:56:49;102495.72;;;9.90;82.36
16355;BME280;8287;51.644;8.494;2023-02-13T04:59:17;102484.63;;;9.93;82.55
16355;BME280;8287;51.644;8.494;2023-02-13T05:01:43;102477.50;;;9.94;82.34
16355;BME280;8287;51.644;8.494;2023-02-13T05:04:10;102483.47;;;9.84;82.68
16355;BME280;8287;51.644;8.494;2023-02-13T05:06:40;102484.03;;;9.86;82.88
16355;BME280;8287;51.644;8.494;2023-02-13T05:09:07;102472.81;;;9.79;82.59
16355;BME280;8287;51.644;8.494;2023-02-13T05:11:33;102487.41;;;9.82;82.76
16355;BME280;8287;51.644;8.494;2023-02-13T05:14:00;102485.88;;;9.86;82.44
16355;BME280;8287;51.644;8.494;2023-02-13T05:16:28;102482.63;;;9.79;83.18
16355;BME280;8287;51.644;8.494;2023-02-13T05:18:54;102484.53;;;9.83;83.07
16355;BME280;8287;51.644;8.494;2023-02-13T05:21:21;102493.81;;;9.86;82.72
16355;BME280;8287;51.644;8.494;2023-02-13T05:24:05;102492.69;;;9.82;82.58
16355;BME280;8287;51.644;8.494;2023-02-13T05:26:32;102496.81;;;9.73;82.77
16355;BME280;8287;51.644;8.494;2023-02-13T05:28:58;102491.75;;;9.71;82.31
16355;BME280;8287;51.644;8.494;2023-02-13T05:31:44;102497.75;;;9.62;82.58
16355;BME280;8287;51.644;8.494;2023-02-13T05:34:10;102494.13;;;9.68;82.42
16355;BME280;8287;51.644;8.494;2023-02-13T05:36:37;102498.22;;;9.59;82.68
16355;BME280;8287;51.644;8.494;2023-02-13T05:39:04;102497.00;;;9.67;81.85
16355;BME280;8287;51.644;8.494;2023-02-13T05:41:31;102495.16;;;9.67;81.80
16355;BME280;8287;51.644;8.494;2023-02-13T05:43:57;102499.34;;;9.63;81.90
16355;BME280;8287;51.644;8.494;2023-02-13T05:46:24;102497.25;;;9.65;82.02
16355;BME280;8287;51.644;8.494;2023-02-13T05:48:52;102497.19;;;9.60;81.85
16355;BME280;8287;51.644;8.494;2023-02-13T05:51:19;102498.94;;;9.55;81.98
16355;BME280;8287;51.644;8.494;2023-02-13T05:53:45;102494.47;;;9.55;81.61
16355;BME280;8287;51.644;8.494;2023-02-13T05:56:12;102505.06;;;9.55;81.61
16355;BME280;8287;51.644;8.494;2023-02-13T05:58:38;102501.28;;;9.51;81.76
16355;BME280;8287;51.644;8.494;2023-02-13T06:01:05;102503.31;;;9.44;82.29
16355;BME280;8287;51.644;8.494;2023-02-13T06:03:32;102504.84;;;9.40;82.15
16355;BME280;8287;51.644;8.494;2023-02-13T06:06:00;102505.38;;;9.42;82.08
16355;BME280;8287;51.644;8.494;2023-02-13T06:08:27;102513.59;;;9.41;81.99
16355;BME280;8287;51.644;8.494;2023-02-13T06:10:53;102515.41;;;9.40;82.11
16355;BME280;8287;51.644;8.494;2023-02-13T06:13:20;102512.63;;;9.30;81.78
16355;BME280;8287;51.644;8.494;2023-02-13T06:15:47;102512.22;;;9.38;81.49
16355;BME280;8287;51.644;8.494;2023-02-13T06:18:15;102515.28;;;9.30;81.76
16355;BME280;8287;51.644;8.494;2023-02-13T06:20:42;102505.88;;;9.39;81.97
16355;BME280;8287;51.644;8.494;2023-02-13T06:23:10;102506.63;;;9.35;81.86
16355;BME280;8287;51.644;8.494;2023-02-13T06:25:36;102510.13;;;9.40;82.00
16355;BME280;8287;51.644;8.494;2023-02-13T06:28:04;102510.44;;;9.44;81.59
16355;BME280;8287;51.644;8.494;2023-02-13T06:30:31;102524.91;;;9.36;82.11
16355;BME280;8287;51.644;8.494;2023-02-13T06:32:58;102518.06;;;9.40;82.23
16355;BME280;8287;51.644;8.494;2023-02-13T06:35:25;102519.13;;;9.39;81.86
16355;BME280;8287;51.644;8.494;2023-02-13T06:37:52;102522.00;;;9.38;82.51
16355;BME280;8287;51.644;8.494;2023-02-13T06:40:20;102521.22;;;9.37;82.28
16355;BME280;8287;51.644;8.494;2023-02-13T06:42:47;102535.16;;;9.33;81.92
16355;BME280;8287;51.644;8.494;2023-02-13T06:45:14;102524.03;;;9.31;81.85
16355;BME280;8287;51.644;8.494;2023-02-13T06:47:41;102532.59;;;9.21;82.19
16355;BME280;8287;51.644;8.494;2023-02-13T06:50:09;102542.03;;;9.17;82.21
16355;BME280;8287;51.644;8.494;2023-02-13T06:52:36;102536.75;;;9.17;82.37
16355;BME280;8287;51.644;8.494;2023-02-13T06:55:03;102543.41;;;9.20;82.69
16355;BME280;8287;51.644;8.494;2023-02-13T06:57:32;102549.56;;;9.25;82.60
16355;BME280;8287;51.644;8.494;2023-02-13T06:59:58;102547.19;;;9.24;83.05
16355;BME280;8287;51.644;8.494;2023-02-13T07:02:27;102554.53;;;9.22;82.69
16355;BME280;8287;51.644;8.494;2023-02-13T07:04:54;102555.19;;;9.29;83.06
16355;BME280;8287;51.644;8.494;2023-02-13T07:07:20;102554.88;;;9.25;83.04
16355;BME280;8287;51.644;8.494;2023-02-13T07:09:47;102552.63;;;9.34;82.69
16355;BME280;8287;51.644;8.494;2023-02-13T07:12:14;102564.50;;;9.31;82.71
16355;BME280;8287;51.644;8.494;2023-02-13T07:14:42;102560.34;;;9.35;83.36
16355;BME280;8287;51.644;8.494;2023-02-13T07:17:08;102554.22;;;9.35;82.93
16355;BME280;8287;51.644;8.494;2023-02-13T07:19:35;102554.13;;;9.30;82.26
16355;BME280;8287;51.644;8.494;2023-02-13T07:22:01;102547.81;;;9.14;83.40
16355;BME280;8287;51.644;8.494;2023-02-13T07:24:28;102556.56;;;9.15;82.86
16355;BME280;8287;51.644;8.494;2023-02-13T07:26:55;102554.16;;;9.13;82.83
16355;BME280;8287;51.644;8.494;2023-02-13T07:29:21;102559.38;;;9.25;82.83
16355;BME280;8287;51.644;8.494;2023-02-13T07:31:49;102552.81;;;9.27;82.68
16355;BME280;8287;51.644;8.494;2023-02-13T07:34:16;102552.31;;;9.30;82.68
16355;BME280;8287;51.644;8.494;2023-02-13T07:36:42;102558.81;;;9.39;82.94
16355;BME280;8287;51.644;8.494;2023-02-13T07:39:09;102561.53;;;9.44;81.97
16355;BME280;8287;51.644;8.494;2023-02-13T07:41:35;102551.19;;;9.43;82.40
16355;BME280;8287;51.644;8.494;2023-02-13T07:44:02;102552.78;;;9.44;82.30
16355;BME280;8287;51.644;8.494;2023-02-13T07:46:28;102558.31;;;9.42;81.94
16355;BME280;8287;51.644;8.494;2023-02-13T07:48:56;102561.28;;;9.46;82.27
16355;BME280;8287;51.644;8.494;2023-02-13T07:51:23;102570.03;;;9.46;82.71
16355;BME280;8287;51.644;8.494;2023-02-13T07:53:50;102562.13;;;9.51;82.74
16355;BME280;8287;51.644;8.494;2023-02-13T07:56:17;102561.78;;;9.26;81.48
16355;BME280;8287;51.644;8.494;2023-02-13T07:58:44;102563.22;;;9.34;82.07
16355;BME280;8287;51.644;8.494;2023-02-13T08:01:12;102564.19;;;9.44;82.30
16355;BME280;8287;51.644;8.494;2023-02-13T08:03:39;102563.69;;;9.47;81.67
16355;BME280;8287;51.644;8.494;2023-02-13T08:06:07;102570.66;;;9.53;81.91
16355;BME280;8287;51.644;8.494;2023-02-13T08:08:35;102564.31;;;9.54;81.51
16355;BME280;8287;51.644;8.494;2023-02-13T08:11:04;102570.56;;;9.48;81.17
16355;BME280;8287;51.644;8.494;2023-02-13T08:13:50;102571.53;;;9.42;81.47
16355;BME280;8287;51.644;8.494;2023-02-13T08:16:17;102568.75;;;9.32;81.83
16355;BME280;8287;51.644;8.494;2023-02-13T08:18:43;102559.69;;;9.28;81.96
16355;BME280;8287;51.644;8.494;2023-02-13T08:21:11;102556.16;;;9.39;81.08
16355;BME280;8287;51.644;8.494;2023-02-13T08:23:39;102556.66;;;9.36;81.29
16355;BME280;8287;51.644;8.494;2023-02-13T08:26:05;102555.84;;;9.36;81.43
16355;BME280;8287;51.644;8.494;2023-02-13T08:28:32;102552.78;;;9.44;81.28
16355;BME280;8287;51.644;8.494;2023-02-13T08:30:58;102556.44;;;9.59;81.27
16355;BME280;8287;51.644;8.494;2023-02-13T08:33:25;102557.03;;;9.45;81.44
16355;BME280;8287;51.644;8.494;2023-02-13T08:35:51;102560.94;;;9.59;81.66
16355;BME280;8287;51.644;8.494;2023-02-13T08:38:19;102565.59;;;9.68;81.17
16355;BME280;8287;51.644;8.494;2023-02-13T08:40:46;102556.75;;;9.79;81.01
16355;BME280;8287;51.644;8.494;2023-02-13T08:43:13;102561.72;;;9.75;80.32
16355;BME280;8287;51.644;8.494;2023-02-13T08:45:39;102555.16;;;9.78;80.03
16355;BME280;8287;51.644;8.494;2023-02-13T08:48:06;102555.19;;;9.83;80.18
16355;BME280;8287;51.644;8.494;2023-02-13T08:50:32;102565.63;;;9.89;80.36
16355;BME280;8287;51.644;8.494;2023-02-13T08:52:59;102564.78;;;9.51;79.64
16355;BME280;8287;51.644;8.494;2023-02-13T08:55:27;102562.13;;;9.51;81.64
16355;BME280;8287;51.644;8.494;2023-02-13T08:57:58;102563.72;;;9.31;82.41
16355;BME280;8287;51.644;8.494;2023-02-13T09:00:25;102565.03;;;9.33;82.59
16355;BME280;8287;51.644;8.494;2023-02-13T09:02:51;102564.50;;;9.15;82.93
16355;BME280;8287;51.644;8.494;2023-02-13T09:05:18;102564.09;;;9.39;82.39
16355;BME280;8287;51.644;8.494;2023-02-13T09:07:45;102565.53;;;9.30;81.92
16355;BME280;8287;51.644;8.494;2023-02-13T09:10:11;102560.34;;;9.35;82.60
16355;BME280;8287;51.644;8.494;2023-02-13T09:12:39;102568.28;;;9.35;82.66
16355;BME280;8287;51.644;8.494;2023-02-13T09:15:06;102567.84;;;9.60;82.70
16355;BME280;8287;51.644;8.494;2023-02-13T09:17:33;102571.50;;;9.75;82.08
16355;BME280;8287;51.644;8.494;2023-02-13T09:19:59;102573.38;;;9.96;80.63
16355;BME280;8287;51.644;8.494;2023-02-13T09:22:27;102564.41;;;9.97;80.35
16355;BME280;8287;51.644;8.494;2023-02-13T09:24:54;102574.38;;;10.06;80.57
16355;BME280;8287;51.644;8.494;2023-02-13T09:27:20;102581.44;;;9.84;79.61
16355;BME280;8287;51.644;8.494;2023-02-13T09:29:48;102573.31;;;9.91;80.67
16355;BME280;8287;51.644;8.494;2023-02-13T09:32:15;102568.50;;;9.88;80.59
16355;BME280;8287;51.644;8.494;2023-02-13T09:34:42;102576.22;;;9.89;80.68
16355;BME280;8287;51.644;8.494;2023-02-13T09:37:08;102570.97;;;9.94;79.61
16355;BME280;8287;51.644;8.494;2023-02-13T09:39:35;102572.13;;;9.82;78.90
16355;BME280;8287;51.644;8.494;2023-02-13T09:42:04;102569.84;;;10.07;79.18
16355;BME280;8287;51.644;8.494;2023-02-13T09:44:38;102569.97;;;10.17;78.77
16355;BME280;8287;51.644;8.494;2023-02-13T09:47:15;102576.69;;;10.24;78.23
16355;BME280;8287;51.644;8.494;2023-02-13T09:49:48;102565.81;;;10.47;78.48
16355;BME280;8287;51.644;8.494;2023-02-13T09:52:15;102572.50;;;10.28;77.70
16355;BME280;8287;51.644;8.494;2023-02-13T09:54:42;102569.72;;;10.40;78.38
16355;BME280;8287;51.644;8.494;2023-02-13T09:57:16;102565.41;;;10.34;78.09
16355;BME280;8287;51.644;8.494;2023-02-13T09:59:56;102562.94;;;10.49;79.41
16355;BME280;8287;51.644;8.494;2023-02-13T10:02:39;102569.16;;;10.59;77.60
16355;BME280;8287;51.644;8.494;2023-02-13T10:05:19;102566.09;;;10.46;77.62
16355;BME280;8287;51.644;8.494;2023-02-13T10:07:53;102571.72;;;10.54;77.97
16355;BME280;8287;51.644;8.494;2023-02-13T10:10:28;102568.72;;;10.72;76.34
16355;BME280;8287;51.644;8.494;2023-02-13T10:16:05;102566.66;;;10.74;76.64
16355;BME280;8287;51.644;8.494;2023-02-13T10:18:42;102562.22;;;10.85;74.93
16355;BME280;8287;51.644;8.494;2023-02-13T10:21:10;102563.47;;;11.04;74.81
16355;BME280;8287;51.644;8.494;2023-02-13T10:23:41;102565.91;;;11.10;74.84
16355;BME280;8287;51.644;8.494;2023-02-13T10:26:16;102561.44;;;11.11;74.30
16355;BME280;8287;51.644;8.494;2023-02-13T10:28:47;102566.13;;;11.35;74.28
16355;BME280;8287;51.644;8.494;2023-02-13T10:31:37;102563.97;;;11.69;74.16
16355;BME280;8287;51.644;8.494;2023-02-13T10:34:10;102562.53;;;11.56;72.87
16355;BME280;8287;51.644;8.494;2023-02-13T10:36:42;102559.53;;;11.79;73.39
16355;BME280;8287;51.644;8.494;2023-02-13T10:39:20;102560.25;;;11.65;71.88
16355;BME280;8287;51.644;8.494;2023-02-13T10:41:49;102561.59;;;11.67;73.45
16355;BME280;8287;51.644;8.494;2023-02-13T10:44:35;102559.28;;;11.81;72.02
16355;BME280;8287;51.644;8.494;2023-02-13T10:47:14;102563.97;;;11.69;70.92
16355;BME280;8287;51.644;8.494;2023-02-13T10:49:58;102556.28;;;11.67;73.69
16355;BME280;8287;51.644;8.494;2023-02-13T10:52:36;102546.13;;;12.11;72.02
16355;BME280;8287;51.644;8.494;2023-02-13T10:55:21;102538.25;;;12.41;72.11
16355;BME280;8287;51.644;8.494;2023-02-13T10:58:03;102547.91;;;11.95;70.67
16355;BME280;8287;51.644;8.494;2023-02-13T11:00:34;102548.59;;;11.76;71.20
16355;BME280;8287;51.644;8.494;2023-02-13T11:03:03;102543.75;;;12.09;72.72
16355;BME280;8287;51.644;8.494;2023-02-13T11:05:34;102540.63;;;12.32;70.48
16355;BME280;8287;51.644;8.494;2023-02-13T11:08:02;102546.13;;;12.11;71.29
16355;BME280;8287;51.644;8.494;2023-02-13T11:10:29;102540.41;;;12.49;71.86
16355;BME280;8287;51.644;8.494;2023-02-13T11:12:55;102533.78;;;12.61;70.17
16355;BME280;8287;51.644;8.494;2023-02-13T11:15:24;102524.50;;;12.79;69.11
16355;BME280;8287;51.644;8.494;2023-02-13T11:17:52;102526.84;;;12.50;69.01
16355;BME280;8287;51.644;8.494;2023-02-13T11:20:32;102521.75;;;12.44;70.63
16355;BME280;8287;51.644;8.494;2023-02-13T11:23:17;102521.69;;;12.14;70.57
16355;BME280;8287;51.644;8.494;2023-02-13T11:25:56;102523.38;;;12.45;70.54
16355;BME280;8287;51.644;8.494;2023-02-13T11:28:23;102525.81;;;12.66;70.24
16355;BME280;8287;51.644;8.494;2023-02-13T11:30:50;102513.03;;;12.73;69.53
16355;BME280;8287;51.644;8.494;2023-02-13T11:33:25;102518.69;;;12.97;68.12
16355;BME280;8287;51.644;8.494;2023-02-13T11:36:04;102517.53;;;12.53;70.82
16355;BME280;8287;51.644;8.494;2023-02-13T11:38:31;102509.59;;;12.88;70.66
16355;BME280;8287;51.644;8.494;2023-02-13T11:41:05;102513.88;;;13.09;70.53
16355;BME280;8287;51.644;8.494;2023-02-13T11:43:35;102514.66;;;13.14;69.96
16355;BME280;8287;51.644;8.494;2023-02-13T11:46:05;102507.50;;;13.00;68.54
16355;BME280;8287;51.644;8.494;2023-02-13T11:48:32;102509.09;;;13.16;69.78
16355;BME280;8287;51.644;8.494;2023-02-13T11:51:01;102511.75;;;13.06;68.88
16355;BME280;8287;51.644;8.494;2023-02-13T11:53:30;102502.72;;;12.97;69.57
16355;BME280;8287;51.644;8.494;2023-02-13T11:56:05;102493.38;;;13.04;69.87
16355;BME280;8287;51.644;8.494;2023-02-13T11:58:33;102495.25;;;13.14;69.39
16355;BME280;8287;51.644;8.494;2023-02-13T12:01:10;102490.19;;;13.17;69.22
16355;BME280;8287;51.644;8.494;2023-02-13T12:03:36;102487.47;;;13.37;69.58
16355;BME280;8287;51.644;8.494;2023-02-13T12:06:11;102482.97;;;13.32;67.99
16355;BME280;8287;51.644;8.494;2023-02-13T12:08:41;102476.31;;;13.30;69.00
16355;BME280;8287;51.644;8.494;2023-02-13T12:11:18;102473.09;;;13.38;68.31
16355;BME280;8287;51.644;8.494;2023-02-13T12:13:47;102469.44;;;12.94;69.01
16355;BME280;8287;51.644;8.494;2023-02-13T12:16:23;102460.91;;;13.12;69.38
16355;BME280;8287;51.644;8.494;2023-02-13T12:18:53;102470.78;;;12.97;69.28
16355;BME280;8287;51.644;8.494;2023-02-13T12:21:30;102460.66;;;13.09;68.46
16355;BME280;8287;51.644;8.494;2023-02-13T12:24:10;102464.91;;;12.75;69.39
16355;BME280;8287;51.644;8.494;2023-02-13T12:26:41;102466.00;;;13.04;69.90
16355;BME280;8287;51.644;8.494;2023-02-13T12:29:26;102453.28;;;13.69;68.77
16355;BME280;8287;51.644;8.494;2023-02-13T12:32:06;102445.34;;;14.17;67.88
16355;BME280;8287;51.644;8.494;2023-02-13T12:34:58;102441.94;;;14.45;67.12
16355;BME280;8287;51.644;8.494;2023-02-13T12:37:39;102439.88;;;14.71;66.31
16355;BME280;8287;51.644;8.494;2023-02-13T12:43:20;102432.09;;;14.74;65.91
16355;BME280;8287;51.644;8.494;2023-02-13T12:45:53;102428.13;;;15.00;65.64
16355;BME280;8287;51.644;8.494;2023-02-13T12:48:33;102418.94;;;15.11;64.55
16355;BME280;8287;51.644;8.494;2023-02-13T12:51:10;102419.81;;;15.30;63.92
16355;BME280;8287;51.644;8.494;2023-02-13T12:53:57;102418.19;;;15.34;64.46
16355;BME280;8287;51.644;8.494;2023-02-13T12:56:41;102410.53;;;15.46;63.82
16355;BME280;8287;51.644;8.494;2023-02-13T12:59:17;102408.72;;;15.65;63.44
16355;BME280;8287;51.644;8.494;2023-02-13T13:02:17;102403.88;;;15.67;62.13
16355;BME280;8287;51.644;8.494;2023-02-13T13:04:56;102401.16;;;15.72;61.77
16355;BME280;8287;51.644;8.494;2023-02-13T13:07:38;102404.56;;;15.54;61.84
16355;BME280;8287;51.644;8.494;2023-02-13T13:10:23;102398.78;;;15.89;62.53
16355;BME280;8287;51.644;8.494;2023-02-13T13:13:00;102403.75;;;15.96;61.73
16355;BME280;8287;51.644;8.494;2023-02-13T13:15:34;102389.81;;;15.80;61.36
16355;BME280;8287;51.644;8.494;2023-02-13T13:18:12;102389.66;;;15.72;62.58
16355;BME280;8287;51.644;8.494;2023-02-13T13:20:52;102386.25;;;16.03;62.01
16355;BME280;8287;51.644;8.494;2023-02-13T13:23:27;102386.19;;;16.08;61.13
16355;BME280;8287;51.644;8.494;2023-02-13T13:26:04;102386.34;;;15.98;59.78
16355;BME280;8287;51.644;8.494;2023-02-13T13:28:36;102380.19;;;15.98;62.25
16355;BME280;8287;51.644;8.494;2023-02-13T13:31:04;102373.63;;;15.90;61.70
16355;BME280;8287;51.644;8.494;2023-02-13T13:33:32;102369.94;;;15.68;61.58
16355;BME280;8287;51.644;8.494;2023-02-13T13:36:04;102372.59;;;16.05;61.76